Time;durP1;ratioP1;P1;durP2;ratioP2;P2;SDS_P1;SDS_P2;PMS_P1;PMS_P2;Temp;Humidity;BMP_temperature;BMP_pressure;BME280_temperature;BME280_humidity;BME280_pressure;Samples;Min_cycle;Max_cycle;Signal;HPM_P1;HPM_P2
2024/01/02 00:02:52;;;;;;;4.97;2.60;;;;;;;2.85;100.00;100162.91;5609600;31;34007;-73
2024/01/02 00:05:56;;;;;;;7.35;2.80;;;;;;;2.80;100.00;100157.22;5609447;31;34158;-72
2024/01/02 00:08:59;;;;;;;6.22;2.62;;;;;;;2.74;100.00;100162.94;5609253;31;34211;-72
2024/01/02 00:12:04;;;;;;;7.37;2.65;;;;;;;2.73;100.00;100159.50;5609623;31;34067;-73
2024/01/02 00:15:07;;;;;;;6.43;2.50;;;;;;;2.86;100.00;100167.19;5609217;31;35499;-71
2024/01/02 00:18:11;;;;;;;5.55;2.47;;;;;;;2.77;100.00;100160.06;5609331;31;33942;-73
2024/01/02 00:21:15;;;;;;;4.75;2.35;;;;;;;2.71;100.00;100158.75;5608009;31;33642;-72
2024/01/02 00:24:18;;;;;;;6.40;2.60;;;;;;;2.62;100.00;100164.75;5608563;31;34842;-72
2024/01/02 00:27:23;;;;;;;7.40;2.78;;;;;;;2.53;100.00;100168.09;5609565;31;33959;-73
2024/01/02 00:30:35;;;;;;;4.80;2.70;;;;;;;2.45;100.00;100163.47;5609278;31;34055;-72
2024/01/02 00:33:38;;;;;;;6.43;2.90;;;;;;;2.39;100.00;100168.34;5609220;31;34019;-72
2024/01/02 00:36:41;;;;;;;5.35;2.70;;;;;;;2.35;100.00;100170.41;5609213;31;33982;-72
2024/01/02 00:39:44;;;;;;;5.68;3.10;;;;;;;2.28;100.00;100163.97;5609100;31;34109;-72
2024/01/02 00:42:47;;;;;;;8.73;3.50;;;;;;;2.28;100.00;100166.56;5608331;31;34007;-72
2024/01/02 00:45:53;;;;;;;7.68;3.15;;;;;;;2.31;100.00;100176.00;5609236;31;34081;-72
2024/01/02 00:48:59;;;;;;;7.70;3.40;;;;;;;2.23;100.00;100176.56;5609105;31;35133;-73
2024/01/02 00:52:03;;;;;;;5.68;3.25;;;;;;;2.16;100.00;100178.00;5609014;31;35353;-72
2024/01/02 00:55:07;;;;;;;8.20;3.50;;;;;;;2.19;100.00;100186.44;5608397;31;34057;-71
2024/01/02 00:58:18;;;;;;;10.80;3.10;;;;;;;2.08;100.00;100189.06;5609140;31;34101;-72
2024/01/02 01:01:24;;;;;;;8.85;3.10;;;;;;;2.04;100.00;100186.81;5609045;31;34017;-72
2024/01/02 01:04:27;;;;;;;8.60;3.40;;;;;;;1.97;100.00;100194.31;5608387;31;34201;-72
2024/01/02 01:07:30;;;;;;;7.82;3.20;;;;;;;1.91;100.00;100191.31;5608118;31;34735;-72
2024/01/02 01:10:36;;;;;;;7.57;2.60;;;;;;;1.93;100.00;100195.50;5608940;31;34054;-72
2024/01/02 01:13:39;;;;;;;7.65;3.12;;;;;;;2.10;100.00;100186.34;5608078;31;34026;-72
2024/01/02 01:16:43;;;;;;;9.05;3.17;;;;;;;2.37;100.00;100189.41;5609206;31;34799;-72
2024/01/02 01:19:48;;;;;;;7.82;3.33;;;;;;;2.35;100.00;100187.88;5608817;31;34057;-72
2024/01/02 01:22:51;;;;;;;7.85;3.25;;;;;;;2.22;100.00;100171.47;5608259;31;34328;-72
2024/01/02 01:25:55;;;;;;;9.10;3.53;;;;;;;2.16;100.00;100180.63;5608885;31;34677;-72
2024/01/02 01:28:59;;;;;;;8.65;3.53;;;;;;;2.13;100.00;100173.84;5608810;31;34003;-72
2024/01/02 01:32:03;;;;;;;9.98;3.85;;;;;;;2.10;100.00;100175.87;5608709;31;34649;-72
2024/01/02 01:35:07;;;;;;;7.03;3.30;;;;;;;2.06;100.00;100182.28;5606703;31;34030;-72
2024/01/02 01:38:10;;;;;;;8.18;3.58;;;;;;;1.95;100.00;100169.19;5609092;31;34676;-72
2024/01/02 01:41:14;;;;;;;6.10;3.20;;;;;;;1.88;100.00;100166.25;5608636;31;33994;-72
2024/01/02 01:44:18;;;;;;;7.28;3.20;;;;;;;1.85;100.00;100165.63;5607948;31;34147;-72
2024/01/02 01:47:21;;;;;;;7.47;3.40;;;;;;;1.78;100.00;100167.91;5608711;31;34103;-72
2024/01/02 01:50:24;;;;;;;7.32;3.08;;;;;;;1.77;100.00;100174.06;5607802;31;34096;-72
2024/01/02 01:53:28;;;;;;;9.60;3.50;;;;;;;1.71;100.00;100164.06;5608419;31;34837;-72
2024/01/02 01:56:33;;;;;;;7.30;3.33;;;;;;;1.72;100.00;100170.97;5607728;31;34419;-72
2024/01/02 01:59:37;;;;;;;7.62;3.53;;;;;;;1.69;100.00;100174.62;5607698;31;34273;-72
2024/01/02 02:02:40;;;;;;;7.43;3.30;;;;;;;1.70;100.00;100171.06;5608454;31;35270;-72
2024/01/02 02:05:45;;;;;;;6.43;3.40;;;;;;;1.68;100.00;100169.53;5607581;31;34165;-73
2024/01/02 02:08:49;;;;;;;8.82;3.62;;;;;;;1.67;100.00;100168.69;5608352;31;33671;-72
2024/01/02 02:11:54;;;;;;;9.75;4.50;;;;;;;1.67;100.00;100165.25;5608554;31;34106;-72
2024/01/02 02:14:57;;;;;;;10.00;5.05;;;;;;;1.68;100.00;100166.94;5607535;31;34084;-72
2024/01/02 02:18:14;;;;;;;10.00;6.10;;;;;;;1.63;100.00;100176.91;5608118;31;34165;-72
2024/01/02 02:21:18;;;;;;;11.63;6.80;;;;;;;1.62;100.00;100175.22;5608115;31;34073;-72
2024/01/02 02:24:21;;;;;;;13.68;7.97;;;;;;;1.56;100.00;100167.84;5608405;31;35208;-72
2024/01/02 02:27:27;;;;;;;14.13;8.27;;;;;;;1.51;100.00;100176.03;5608066;31;34741;-72
2024/01/02 02:30:30;;;;;;;12.85;7.57;;;;;;;1.47;100.00;100179.00;5608030;31;34149;-72
2024/01/02 02:33:34;;;;;;;14.32;8.00;;;;;;;1.30;100.00;100180.25;5607931;31;34233;-72
2024/01/02 02:36:38;;;;;;;14.20;8.63;;;;;;;1.21;100.00;100173.91;5607923;31;34050;-73
2024/01/02 02:39:41;;;;;;;14.27;9.30;;;;;;;1.15;100.00;100173.56;5607100;31;34247;-72
2024/01/02 02:42:44;;;;;;;12.15;9.10;;;;;;;1.09;100.00;100180.06;5607867;31;34060;-73
2024/01/02 02:45:47;;;;;;;14.20;9.35;;;;;;;1.05;100.00;100175.16;5609023;31;34277;-72
2024/01/02 02:48:51;;;;;;;14.87;9.73;;;;;;;0.95;100.00;100179.41;5610183;31;34065;-71
2024/01/02 02:51:54;;;;;;;12.27;8.93;;;;;;;1.00;100.00;100182.50;5610247;31;34072;-72
2024/01/02 02:54:58;;;;;;;14.55;9.43;;;;;;;0.97;100.00;100180.94;5610018;31;34242;-72
2024/01/02 02:58:00;;;;;;;15.18;9.23;;;;;;;0.97;100.00;100180.94;5610237;31;34720;-72
2024/01/02 03:01:33;;;;;;;13.77;9.25;;;;;;;0.87;100.00;100170.31;5610232;31;34222;-75
2024/01/02 03:04:36;;;;;;;13.62;8.88;;;;;;;0.79;100.00;100175.28;5608816;31;34169;-72
2024/01/02 03:07:41;;;;;;;14.45;8.20;;;;;;;0.76;100.00;100180.72;5609904;31;33991;-73
2024/01/02 03:10:43;;;;;;;12.77;8.50;;;;;;;0.72;100.00;100178.47;5610028;31;34065;-73
2024/01/02 03:13:47;;;;;;;14.93;8.95;;;;;;;0.69;100.00;100176.88;5610070;31;33940;-72
2024/01/02 03:16:50;;;;;;;14.63;8.77;;;;;;;0.71;100.00;100168.94;5609738;31;34034;-73
2024/01/02 03:19:53;;;;;;;12.27;8.23;;;;;;;0.67;100.00;100160.50;5609771;31;34769;-73
2024/01/02 03:22:56;;;;;;;11.12;7.68;;;;;;;0.62;100.00;100153.94;5609891;31;34716;-75
2024/01/02 03:25:59;;;;;;;14.27;8.18;;;;;;;0.64;100.00;100160.72;5609750;31;34626;-74
2024/01/02 03:29:02;;;;;;;12.30;7.93;;;;;;;0.63;100.00;100159.03;5609865;31;34824;-73
2024/01/02 03:32:06;;;;;;;13.68;8.02;;;;;;;0.67;100.00;100155.28;5609451;31;34716;-73
2024/01/02 03:35:10;;;;;;;13.23;8.20;;;;;;;0.68;100.00;100146.50;5609281;31;33959;-74
2024/01/02 03:38:15;;;;;;;15.13;7.87;;;;;;;0.68;100.00;100140.44;5609940;31;34124;-74
2024/01/02 03:41:18;;;;;;;12.77;7.97;;;;;;;0.66;100.00;100132.75;5609723;31;34847;-72
2024/01/02 03:44:22;;;;;;;12.18;7.80;;;;;;;0.66;100.00;100135.34;5609729;31;34775;-73
2024/01/02 03:47:25;;;;;;;14.75;9.00;;;;;;;0.69;100.00;100132.50;5609558;31;34642;-73
2024/01/02 03:50:28;;;;;;;16.48;9.18;;;;;;;0.77;100.00;100121.53;5608827;31;34121;-73
2024/01/02 03:53:33;;;;;;;16.75;9.60;;;;;;;0.69;100.00;100127.28;5609657;31;34750;-73
2024/01/02 03:56:36;;;;;;;14.73;9.35;;;;;;;0.64;100.00;100125.94;5608549;31;34345;-73
2024/01/02 03:59:39;;;;;;;13.82;9.85;;;;;;;0.73;100.00;100138.31;5609581;31;34103;-73
2024/01/02 04:02:43;;;;;;;14.52;10.02;;;;;;;1.00;100.00;100133.72;5608929;31;34201;-73
2024/01/02 04:05:46;;;;;;;15.02;9.95;;;;;;;0.90;100.00;100139.72;5609473;31;34787;-74
2024/01/02 04:08:49;;;;;;;15.77;10.20;;;;;;;0.74;100.00;100140.84;5608722;31;33682;-72
2024/01/02 04:11:53;;;;;;;16.65;11.10;;;;;;;0.65;100.00;100146.72;5609458;31;34669;-72
2024/01/02 04:14:56;;;;;;;18.45;11.30;;;;;;;0.57;100.00;100156.91;5609427;31;34804;-73
2024/01/02 04:17:59;;;;;;;16.77;10.63;;;;;;;0.54;100.00;100170.16;5609509;31;34750;-73
2024/01/02 04:21:02;;;;;;;16.83;11.68;;;;;;;0.48;100.00;100165.38;5609314;31;34058;-73
2024/01/02 04:24:05;;;;;;;17.30;10.88;;;;;;;0.44;100.00;100172.56;5609269;31;34033;-73
2024/01/02 04:27:08;;;;;;;16.55;10.93;;;;;;;0.42;100.00;100178.84;5608398;31;34217;-73
2024/01/02 04:30:12;;;;;;;16.67;11.15;;;;;;;0.46;100.00;100171.63;5609222;31;34007;-73
2024/01/02 04:33:15;;;;;;;18.60;12.07;;;;;;;0.46;100.00;100167.25;5609123;31;34799;-72
2024/01/02 04:36:18;;;;;;;17.27;11.20;;;;;;;0.50;100.00;100158.25;5609208;31;34955;-73
2024/01/02 04:39:22;;;;;;;15.35;10.93;;;;;;;0.44;100.00;100156.91;5609553;31;34621;-73
2024/01/02 04:42:25;;;;;;;17.92;11.12;;;;;;;0.48;100.00;100162.78;5608360;31;34277;-73
2024/01/02 04:45:28;;;;;;;16.42;11.15;;;;;;;0.45;100.00;100170.81;5609182;31;34020;-73
2024/01/02 04:48:31;;;;;;;15.40;10.13;;;;;;;0.42;100.00;100171.03;5608474;31;33767;-73
2024/01/02 04:51:34;;;;;;;16.17;11.05;;;;;;;0.39;100.00;100156.41;5608167;31;34080;-73
2024/01/02 04:54:37;;;;;;;16.83;11.07;;;;;;;0.41;100.00;100161.53;5609085;31;34156;-73
2024/01/02 04:57:41;;;;;;;17.25;11.18;;;;;;;0.43;100.00;100151.81;5609153;31;35035;-74
2024/01/02 05:00:44;;;;;;;16.27;10.85;;;;;;;0.38;100.00;100149.53;5608973;31;34780;-74
2024/01/02 05:03:47;;;;;;;16.67;11.60;;;;;;;0.37;100.00;100147.03;5609116;31;34228;-73
2024/01/02 05:06:53;;;;;;;17.08;11.43;;;;;;;0.39;100.00;100143.38;5608910;31;34047;-73
2024/01/02 05:09:57;;;;;;;16.33;10.95;;;;;;;0.35;100.00;100139.31;5608351;31;34038;-73
2024/01/02 05:13:00;;;;;;;15.15;10.00;;;;;;;0.30;100.00;100137.97;5608427;31;34771;-73
2024/01/02 05:16:03;;;;;;;20.23;10.60;;;;;;;0.29;100.00;100144.16;5608246;31;34059;-73
2024/01/02 05:19:06;;;;;;;14.73;9.98;;;;;;;0.32;100.00;100136.94;5608751;31;34015;-73
2024/01/02 05:22:09;;;;;;;19.08;10.23;;;;;;;0.30;100.00;100141.41;5607999;31;34160;-73
2024/01/02 05:25:13;;;;;;;17.55;10.90;;;;;;;0.27;100.00;100135.59;5608732;31;34212;-72
2024/01/02 05:28:16;;;;;;;16.52;10.82;;;;;;;0.39;100.00;100137.31;5608090;31;34221;-72
2024/01/02 05:31:19;;;;;;;17.87;11.63;;;;;;;0.39;100.00;100134.69;5608950;31;35132;-72
2024/01/02 05:34:22;;;;;;;16.55;11.10;;;;;;;0.41;100.00;100132.81;5609125;31;34266;-72
2024/01/02 05:37:25;;;;;;;15.85;10.25;;;;;;;0.39;100.00;100132.09;5608585;31;34423;-72
2024/01/02 05:40:31;;;;;;;18.80;11.52;;;;;;;0.38;100.00;100126.06;5607955;31;34119;-72
2024/01/02 05:43:34;;;;;;;17.95;10.30;;;;;;;0.43;100.00;100133.56;5608436;31;34862;-73
2024/01/02 05:46:38;;;;;;;17.25;9.77;;;;;;;0.67;100.00;100138.78;5608738;31;34048;-72
2024/01/02 05:49:42;;;;;;;14.80;8.73;;;;;;;0.81;100.00;100142.06;5608508;31;34115;-72
2024/01/02 05:52:46;;;;;;;16.27;9.90;;;;;;;0.84;100.00;100136.63;5608292;31;34237;-72
2024/01/02 05:55:49;;;;;;;17.00;10.35;;;;;;;1.16;100.00;100142.06;5608772;31;34110;-73
2024/01/02 05:58:52;;;;;;;16.50;11.15;;;;;;;1.23;100.00;100158.13;5608500;31;34369;-72
2024/01/02 06:01:55;;;;;;;16.80;11.93;;;;;;;1.25;100.00;100151.03;5608461;31;34068;-72
2024/01/02 06:04:58;;;;;;;18.23;12.70;;;;;;;1.15;100.00;100152.66;5608598;31;34008;-72
2024/01/02 06:08:02;;;;;;;17.95;13.45;;;;;;;1.08;100.00;100149.66;5608074;31;33972;-72
2024/01/02 06:11:05;;;;;;;19.80;14.32;;;;;;;1.04;100.00;100150.81;5608092;31;34817;-72
2024/01/02 06:14:11;;;;;;;20.20;15.98;;;;;;;0.97;100.00;100160.03;5608452;31;34734;-72
2024/01/02 06:17:15;;;;;;;18.90;15.27;;;;;;;0.93;100.00;100156.00;5607923;31;34956;-72
2024/01/02 06:20:17;;;;;;;19.27;14.98;;;;;;;0.92;100.00;100151.72;5606407;31;33927;-72
2024/01/02 06:23:21;;;;;;;20.37;16.73;;;;;;;0.87;100.00;100143.41;5607276;31;34849;-73
2024/01/02 06:26:24;;;;;;;21.62;15.68;;;;;;;0.83;100.00;100137.56;5607986;31;34269;-73
2024/01/02 06:29:27;;;;;;;18.85;15.35;;;;;;;0.76;100.00;100146.78;5607838;31;34220;-73
2024/01/02 06:32:31;;;;;;;21.52;16.02;;;;;;;0.77;100.00;100148.47;5607770;31;34739;-73
2024/01/02 06:35:34;;;;;;;20.52;16.80;;;;;;;0.63;100.00;100148.59;5607630;31;34683;-73
2024/01/02 06:38:38;;;;;;;21.52;16.42;;;;;;;0.73;100.00;100146.16;5607012;31;34418;-72
2024/01/02 06:41:43;;;;;;;21.27;15.80;;;;;;;0.71;100.00;100145.44;5607908;31;34756;-72
2024/01/02 06:44:46;;;;;;;20.75;15.88;;;;;;;0.71;100.00;100148.91;5607525;31;33983;-73
2024/01/02 06:47:49;;;;;;;19.48;17.02;;;;;;;0.71;100.00;100148.91;5607685;31;34176;-72
2024/01/02 06:50:52;;;;;;;23.73;16.95;;;;;;;0.72;100.00;100147.97;5606754;31;34750;-72
2024/01/02 06:53:55;;;;;;;22.60;17.50;;;;;;;0.74;100.00;100156.50;5607463;31;33971;-73
2024/01/02 06:56:58;;;;;;;23.95;18.62;;;;;;;0.77;100.00;100147.62;5606936;31;35146;-73
2024/01/02 07:00:01;;;;;;;23.60;19.98;;;;;;;0.77;100.00;100152.84;5607207;31;34450;-73
2024/01/02 07:03:04;;;;;;;28.17;20.92;;;;;;;0.72;100.00;100152.34;5607169;31;34373;-73
2024/01/02 07:06:07;;;;;;;29.30;22.42;;;;;;;0.78;100.00;100155.34;5607213;31;34697;-73
2024/01/02 07:09:10;;;;;;;28.27;21.62;;;;;;;0.69;100.00;100155.16;5607206;31;34002;-74
2024/01/02 07:12:17;;;;;;;32.22;24.75;;;;;;;0.68;100.00;100162.16;5607017;31;34742;-74
2024/01/02 07:15:20;;;;;;;34.17;25.30;;;;;;;0.60;100.00;100150.59;5606359;31;33893;-72
2024/01/02 07:18:23;;;;;;;36.17;25.42;;;;;;;0.69;100.00;100163.00;5606921;31;34081;-74
2024/01/02 07:21:26;;;;;;;37.50;27.23;;;;;;;0.74;100.00;100166.94;5606800;31;34000;-74
2024/01/02 07:24:31;;;;;;;42.17;28.30;;;;;;;0.69;100.00;100158.59;5606785;31;34927;-75
2024/01/02 07:27:34;;;;;;;34.20;26.15;;;;;;;0.76;100.00;100162.47;5606345;31;34109;-74
2024/01/02 07:30:37;;;;;;;37.63;26.73;;;;;;;0.81;100.00;100170.78;5607085;31;34348;-74
2024/01/02 07:33:41;;;;;;;39.85;27.58;;;;;;;0.83;100.00;100168.88;5609621;31;34755;-74
2024/01/02 07:36:44;;;;;;;42.13;28.85;;;;;;;1.01;100.00;100173.72;5608811;31;34803;-74
2024/01/02 07:39:50;;;;;;;45.75;29.23;;;;;;;0.93;100.00;100174.28;5609649;31;35427;-75
2024/01/02 07:42:53;;;;;;;42.00;28.73;;;;;;;0.81;100.00;100175.19;5609532;31;32810;-74
2024/01/02 07:45:57;;;;;;;41.15;29.37;;;;;;;0.80;100.00;100171.72;5609435;31;35589;-74
2024/01/02 07:49:00;;;;;;;46.53;32.20;;;;;;;0.80;100.00;100161.28;5608610;31;34798;-75
2024/01/02 07:52:04;;;;;;;45.33;31.30;;;;;;;0.85;100.00;100153.13;5609230;31;34963;-75
2024/01/02 07:55:11;;;;;;;39.67;27.83;;;;;;;1.01;100.00;100152.84;5609725;31;34021;-76
2024/01/02 07:58:14;;;;;;;39.97;29.25;;;;;;;0.93;100.00;100152.53;5609398;31;33952;-75
2024/01/02 08:01:17;;;;;;;42.28;29.10;;;;;;;0.95;100.00;100150.66;5609206;31;34385;-75
2024/01/02 08:04:20;;;;;;;36.95;27.98;;;;;;;0.85;100.00;100142.66;5609463;31;34705;-75
2024/01/02 08:07:23;;;;;;;38.88;26.95;;;;;;;1.11;100.00;100141.59;5608476;31;34375;-75
2024/01/02 08:10:26;;;;;;;35.28;26.20;;;;;;;1.49;100.00;100137.91;5609198;31;34750;-75
2024/01/02 08:13:29;;;;;;;36.72;25.67;;;;;;;1.36;100.00;100140.59;5609244;31;34146;-75
2024/01/02 08:16:32;;;;;;;33.17;25.83;;;;;;;1.41;100.00;100137.62;5609500;31;33983;-75
2024/01/02 08:19:36;;;;;;;38.25;27.55;;;;;;;1.39;100.00;100129.91;5609249;31;34042;-76
2024/01/02 08:22:39;;;;;;;41.42;27.75;;;;;;;1.35;100.00;100138.09;5609094;31;34220;-76
2024/01/02 08:25:42;;;;;;;49.08;28.58;;;;;;;1.35;100.00;100132.88;5609199;31;35514;-76
2024/01/02 08:28:45;;;;;;;43.70;28.75;;;;;;;1.33;100.00;100132.97;5609052;31;34256;-75
2024/01/02 08:31:49;;;;;;;46.00;26.92;;;;;;;1.41;100.00;100127.16;5609170;31;34524;-75
2024/01/02 08:34:52;;;;;;;42.55;25.37;;;;;;;1.69;100.00;100124.16;5608885;31;34148;-75
2024/01/02 08:37:55;;;;;;;31.20;22.48;;;;;;;1.77;100.00;100134.00;5608707;31;33979;-76
2024/01/02 08:40:58;;;;;;;27.98;19.25;;;;;;;1.95;100.00;100136.03;5609264;31;34463;-75
2024/01/02 08:44:01;;;;;;;25.05;17.15;;;;;;;1.99;100.00;100124.38;5608270;31;34253;-75
2024/01/02 08:47:04;;;;;;;25.50;18.58;;;;;;;1.97;100.00;100134.12;5609078;31;34971;-75
2024/01/02 08:50:10;;;;;;;23.48;18.12;;;;;;;1.83;100.00;100136.16;5608853;31;34067;-75
2024/01/02 08:53:13;;;;;;;25.37;18.25;;;;;;;1.95;100.00;100125.56;5608913;31;34145;-75
2024/01/02 08:56:16;;;;;;;21.92;16.50;;;;;;;2.08;100.00;100123.66;5608662;31;34769;-74
2024/01/02 08:59:19;;;;;;;20.75;15.90;;;;;;;2.19;100.00;100126.25;5607999;31;34024;-74
2024/01/02 09:02:22;;;;;;;23.98;16.80;;;;;;;2.19;100.00;100120.19;5608577;31;34423;-75
2024/01/02 09:05:26;;;;;;;20.80;16.42;;;;;;;2.25;100.00;100117.09;5608810;31;33995;-75
2024/01/02 09:08:29;;;;;;;22.13;16.87;;;;;;;2.16;100.00;100115.22;5608565;31;34081;-75
2024/01/02 09:11:34;;;;;;;22.45;16.10;;;;;;;1.98;100.00;100112.25;5608615;31;34200;-75
2024/01/02 09:14:37;;;;;;;21.85;17.33;;;;;;;2.05;100.00;100118.66;5608330;31;34111;-76
2024/01/02 09:17:40;;;;;;;20.33;15.93;;;;;;;2.26;100.00;100110.09;5608435;31;34138;-76
2024/01/02 09:20:44;;;;;;;22.33;16.67;;;;;;;2.66;100.00;100110.34;5608815;31;34028;-75
2024/01/02 09:23:47;;;;;;;20.20;15.05;;;;;;;2.65;100.00;100099.03;5608692;31;34084;-75
2024/01/02 09:26:51;;;;;;;17.73;14.05;;;;;;;3.10;100.00;100098.84;5608842;31;34108;-75
2024/01/02 09:29:55;;;;;;;17.83;14.15;;;;;;;2.81;100.00;100088.97;5608616;31;34695;-75
2024/01/02 09:32:59;;;;;;;17.30;11.82;;;;;;;3.27;100.00;100082.53;5607545;31;34260;-75
2024/01/02 09:36:02;;;;;;;17.05;11.75;;;;;;;3.16;100.00;100074.75;5608288;31;34328;-75
2024/01/02 09:39:06;;;;;;;16.15;11.25;;;;;;;3.25;100.00;100072.19;5608046;31;35581;-75
2024/01/02 09:42:12;;;;;;;13.65;10.77;;;;;;;3.18;100.00;100063.19;5608341;31;34194;-75
2024/01/02 09:45:32;;;;;;;12.52;10.63;;;;;;;3.47;100.00;100068.59;5607876;31;34106;-75
2024/01/02 09:48:46;;;;;;;13.93;11.10;;;;;;;3.20;100.00;100068.28;5608177;31;34863;-75
2024/01/02 09:51:55;;;;;;;13.88;11.10;;;;;;;3.30;100.00;100066.53;5607960;31;34014;-75
2024/01/02 09:55:26;;;;;;;15.05;11.32;;;;;;;3.40;100.00;100072.69;5607206;31;34742;-75
2024/01/02 09:58:38;;;;;;;13.13;11.00;;;;;;;3.55;100.00;100081.03;5607961;31;35608;-74
2024/01/02 10:02:01;;;;;;;14.43;11.18;;;;;;;3.35;100.00;100069.62;5607939;31;34202;-74
2024/01/02 10:05:16;;;;;;;13.70;11.32;;;;;;;3.09;100.00;100069.19;5608177;31;34258;-74
2024/01/02 10:08:44;;;;;;;15.02;11.15;;;;;;;2.97;100.00;100067.59;5607661;31;34085;-74
2024/01/02 10:12:05;;;;;;;15.27;11.50;;;;;;;3.01;100.00;100061.97;5607972;31;35101;-74
2024/01/02 10:15:28;;;;;;;14.75;11.55;;;;;;;3.35;100.00;100052.09;5607723;31;34758;-74
2024/01/02 10:19:00;;;;;;;14.25;11.27;;;;;;;3.59;100.00;100041.31;5607228;31;34703;-75
2024/01/02 10:22:34;;;;;;;14.85;12.48;;;;;;;3.46;100.00;100046.78;5608051;31;34384;-74
2024/01/02 10:25:39;;;;;;;15.70;12.25;;;;;;;3.72;100.00;100033.22;5608042;31;34736;-74
2024/01/02 10:28:43;;;;;;;15.35;12.55;;;;;;;3.45;100.00;100034.63;5607893;31;35113;-73
2024/01/02 10:32:04;;;;;;;17.80;13.15;;;;;;;3.58;100.00;100042.28;5607475;31;34040;-73
2024/01/02 10:35:28;;;;;;;17.92;12.93;;;;;;;3.60;100.00;100031.66;5607640;31;34776;-74
2024/01/02 10:38:54;;;;;;;17.58;13.02;;;;;;;3.91;100.00;100035.91;5606722;31;34604;-74
2024/01/02 10:42:36;;;;;;;19.12;13.55;;;;;;;3.63;100.00;100024.34;5606394;31;34498;-74
2024/01/02 10:46:18;;;;;;;19.45;13.75;;;;;;;3.74;100.00;100012.94;5595813;31;35244;-74
2024/01/02 10:49:50;;;;;;;19.60;13.55;;;;;;;4.28;100.00;99999.38;5608335;31;34434;-74
2024/01/02 10:53:27;;;;;;;15.32;11.95;;;;;;;4.38;100.00;100000.22;5606558;31;35218;-74
2024/01/02 10:56:55;;;;;;;17.02;12.00;;;;;;;4.19;100.00;99994.94;5606391;31;34293;-75
2024/01/02 11:00:07;;;;;;;17.30;11.95;;;;;;;4.40;100.00;99992.19;5606935;31;34669;-74
2024/01/02 11:03:14;;;;;;;15.88;12.48;;;;;;;4.22;100.00;99990.25;5606973;31;34384;-74
2024/01/02 11:06:45;;;;;;;18.52;12.20;;;;;;;4.38;100.00;99973.94;5607815;31;34119;-74
2024/01/02 11:10:11;;;;;;;14.70;11.00;;;;;;;4.43;100.00;99970.91;5603978;31;34034;-75
2024/01/02 11:13:17;;;;;;;13.20;10.20;;;;;;;4.75;100.00;99960.91;5609453;31;34325;-75
2024/01/02 11:16:22;;;;;;;10.82;9.25;;;;;;;4.91;100.00;99955.91;5609490;31;33890;-75
2024/01/02 11:19:38;;;;;;;11.07;9.35;;;;;;;5.13;100.00;99949.50;5609938;31;33979;-76
2024/01/02 11:23:00;;;;;;;11.30;9.25;;;;;;;5.58;100.00;99941.66;5609450;31;34077;-75
2024/01/02 11:26:32;;;;;;;12.52;9.32;;;;;;;5.75;100.00;99951.44;5609645;31;34817;-73
2024/01/02 11:29:36;;;;;;;10.82;9.05;;;;;;;5.83;100.00;99946.25;5601423;31;34736;-75
2024/01/02 11:33:17;;;;;;;13.20;9.93;;;;;;;5.68;100.00;99948.53;5608653;31;34021;-75
2024/01/02 11:36:48;;;;;;;13.05;9.75;;;;;;;5.90;100.00;99941.25;5609368;31;34778;-74
2024/01/02 11:40:24;;;;;;;15.85;10.13;;;;;;;5.67;100.00;99943.41;5609541;31;34078;-75
2024/01/02 11:43:55;;;;;;;14.70;11.18;;;;;;;5.88;100.00;99932.66;5609480;31;33999;-74
2024/01/02 11:47:04;;;;;;;13.70;11.77;;;;;;;5.82;100.00;99926.16;5609933;31;34194;-75
2024/01/02 11:50:08;;;;;;;15.60;13.13;;;;;;;5.66;100.00;99918.91;5608879;31;34016;-75
2024/01/02 11:53:24;;;;;;;17.55;12.98;;;;;;;5.82;100.00;99918.25;5609222;31;33972;-74
2024/01/02 11:56:31;;;;;;;17.60;13.07;;;;;;;6.06;100.00;99901.91;5608722;31;34092;-74
2024/01/02 11:59:37;;;;;;;16.17;13.07;;;;;;;5.97;100.00;99898.38;5609365;31;33977;-75
2024/01/02 12:02:56;;;;;;;17.27;13.90;;;;;;;6.33;100.00;99893.94;5609786;31;34236;-75
2024/01/02 12:06:05;;;;;;;19.45;14.95;;;;;;;5.91;100.00;99879.72;5609511;31;34480;-76
2024/01/02 12:09:14;;;;;;;19.33;14.65;;;;;;;6.16;100.00;99865.78;5609381;31;34061;-75
2024/01/02 12:12:44;;;;;;;20.62;16.73;;;;;;;6.22;100.00;99864.34;5608734;31;34082;-76
2024/01/02 12:15:52;;;;;;;19.90;15.33;;;;;;;5.92;100.00;99862.94;5609570;31;34038;-76
2024/01/02 12:18:59;;;;;;;20.17;15.00;;;;;;;5.95;100.00;99855.59;5598759;31;273836;-75
2024/01/02 12:22:05;;;;;;;20.65;16.20;;;;;;;6.19;100.00;99848.87;5609314;31;34174;-75
2024/01/02 12:25:08;;;;;;;20.50;16.42;;;;;;;6.33;100.00;99857.06;5609286;31;34788;-76
2024/01/02 12:28:18;;;;;;;19.23;16.60;;;;;;;6.64;100.00;99853.94;5609049;31;34006;-75
2024/01/02 12:31:21;;;;;;;22.60;16.77;;;;;;;6.39;100.00;99845.88;5609164;31;34220;-76
2024/01/02 12:34:30;;;;;;;22.65;17.42;;;;;;;6.24;100.00;99839.53;5609002;31;34149;-76
2024/01/02 12:37:33;;;;;;;22.73;17.53;;;;;;;6.42;100.00;99836.84;5609472;31;34237;-75
2024/01/02 12:40:43;;;;;;;22.95;17.98;;;;;;;6.46;100.00;99822.38;5608858;31;34774;-75
2024/01/02 12:43:52;;;;;;;22.17;17.42;;;;;;;6.40;100.00;99829.09;5609175;31;34395;-75
2024/01/02 12:47:16;;;;;;;25.75;17.95;;;;;;;6.38;100.00;99824.97;5609186;31;34840;-75
2024/01/02 12:50:21;;;;;;;23.95;17.67;;;;;;;6.31;100.00;99816.03;5608963;31;34246;-75
2024/01/02 12:53:33;;;;;;;24.50;18.10;;;;;;;6.43;100.00;99817.44;5609265;31;34125;-75
2024/01/02 12:56:40;;;;;;;21.37;17.55;;;;;;;6.34;100.00;99810.47;5609021;31;34098;-75
2024/01/02 12:59:44;;;;;;;25.23;18.17;;;;;;;6.26;100.00;99813.84;5609347;31;34733;-75
2024/01/02 13:02:49;;;;;;;24.55;18.27;;;;;;;5.98;100.00;99812.31;5609162;31;34233;-75
2024/01/02 13:05:54;;;;;;;22.85;18.08;;;;;;;5.95;100.00;99802.09;5608143;31;34105;-75
2024/01/02 13:08:58;;;;;;;22.60;17.65;;;;;;;6.10;100.00;99797.91;5608703;31;33968;-74
2024/01/02 13:12:02;;;;;;;22.92;17.77;;;;;;;5.91;100.00;99790.19;5608791;31;33999;-76
2024/01/02 13:15:10;;;;;;;22.30;16.95;;;;;;;6.03;100.00;99781.94;5609105;31;34096;-75
2024/01/02 13:18:15;;;;;;;22.83;17.90;;;;;;;5.98;100.00;99771.03;5609162;31;34810;-75
2024/01/02 13:21:23;;;;;;;25.52;16.92;;;;;;;6.09;100.00;99764.69;5607607;31;34256;-75
2024/01/02 13:24:46;;;;;;;23.27;16.87;;;;;;;6.28;100.00;99761.03;5608800;31;34876;-75
2024/01/02 13:27:55;;;;;;;24.00;16.30;;;;;;;5.97;100.00;99756.19;5608950;31;34058;-75
2024/01/02 13:31:01;;;;;;;21.95;16.00;;;;;;;6.12;100.00;99744.13;5608969;31;34326;-75
2024/01/02 13:34:05;;;;;;;20.05;15.60;;;;;;;5.99;100.00;99733.19;5608988;31;34148;-76
2024/01/02 13:37:24;;;;;;;21.58;15.75;;;;;;;6.08;100.00;99728.81;5608698;31;34351;-75
2024/01/02 13:40:28;;;;;;;23.60;16.23;;;;;;;6.02;100.00;99718.87;5608524;31;34349;-75
2024/01/02 13:43:34;;;;;;;22.05;16.25;;;;;;;6.06;100.00;99717.59;5608278;31;34016;-74
2024/01/02 13:46:37;;;;;;;19.80;15.80;;;;;;;6.18;100.00;99712.91;5607717;31;34649;-75
2024/01/02 13:49:52;;;;;;;24.98;17.30;;;;;;;6.15;100.00;99706.13;5608520;31;34795;-73
2024/01/02 13:53:06;;;;;;;22.98;17.17;;;;;;;6.26;100.00;99713.75;5608374;31;34876;-75
2024/01/02 13:56:09;;;;;;;22.58;16.25;;;;;;;6.29;100.00;99716.09;5607826;31;34063;-75
2024/01/02 13:59:13;;;;;;;22.52;15.77;;;;;;;6.30;100.00;99707.19;5608310;31;34107;-76
2024/01/02 14:02:17;;;;;;;20.88;15.25;;;;;;;6.34;100.00;99708.53;5608554;31;34738;-74
2024/01/02 14:05:26;;;;;;;18.67;14.20;;;;;;;6.28;100.00;99705.72;5594723;31;34725;-74
2024/01/02 14:08:30;;;;;;;18.80;12.43;;;;;;;6.27;100.00;99699.62;5608119;31;34063;-74
2024/01/02 14:11:33;;;;;;;16.90;11.85;;;;;;;6.29;100.00;99692.41;5608355;31;34108;-74
2024/01/02 14:14:58;;;;;;;17.60;11.68;;;;;;;6.30;100.00;99701.09;5607928;31;34707;-74
2024/01/02 14:18:14;;;;;;;15.95;11.12;;;;;;;6.29;100.00;99691.56;5608108;31;34370;-73